Time;durP1;ratioP1;P1;durP2;ratioP2;P2;SDS_P1;SDS_P2;PMS_P1;PMS_P2;Temp;Humidity;BMP_temperature;BMP_pressure;BME280_temperature;BME280_humidity;BME280_pressure;Samples;Min_cycle;Max_cycle;Signal;HPM_P1;HPM_P2
2024/01/14 00:00:19;;;;;;;86.55;37.17;;;3.10;99.90;;;;;;4129894;28;20708;-75
2024/01/14 00:02:20;;;;;;;69.75;31.33;;;3.10;99.90;;;;;;4144047;28;20471;-74
2024/01/14 00:04:20;;;;;;;71.03;32.53;;;3.00;99.90;;;;;;4136580;28;20109;-74
2024/01/14 00:06:22;;;;;;;73.13;33.90;;;3.00;99.90;;;;;;4130048;28;20034;-74
2024/01/14 00:08:22;;;;;;;80.57;36.90;;;3.00;99.90;;;;;;4134947;28;20103;-75
2024/01/14 00:10:23;;;;;;;76.35;36.17;;;3.00;99.90;;;;;;4129497;28;20042;-75
2024/01/14 00:12:24;;;;;;;77.15;35.97;;;3.00;99.90;;;;;;4130008;28;20034;-74
2024/01/14 00:14:25;;;;;;;66.72;32.88;;;3.00;99.90;;;;;;4113106;28;20081;-75
2024/01/14 00:16:26;;;;;;;65.78;32.08;;;3.00;99.90;;;;;;4114646;28;20519;-75
2024/01/14 00:18:26;;;;;;;69.43;33.28;;;3.00;99.90;;;;;;4134347;28;20049;-75
2024/01/14 00:20:27;;;;;;;77.80;35.60;;;3.00;99.90;;;;;;4129977;28;20034;-74
2024/01/14 00:22:27;;;;;;;66.78;32.47;;;3.00;99.90;;;;;;4130007;28;20046;-74
2024/01/14 00:24:28;;;;;;;65.32;32.28;;;3.00;99.90;;;;;;4113080;28;20126;-74
2024/01/14 00:26:29;;;;;;;65.65;31.63;;;3.00;99.90;;;;;;4132909;28;20419;-75
2024/01/14 00:28:30;;;;;;;69.45;31.70;;;3.00;99.90;;;;;;4137806;28;20046;-75
2024/01/14 00:30:30;;;;;;;72.03;33.40;;;3.10;99.90;;;;;;4128374;28;20043;-75
2024/01/14 00:32:31;;;;;;;62.92;31.63;;;3.00;99.90;;;;;;4112706;28;20384;-75
2024/01/14 00:34:32;;;;;;;69.30;34.60;;;3.10;99.90;;;;;;4111011;28;20071;-74
2024/01/14 00:36:38;;;;;;;66.65;32.38;;;3.10;99.90;;;;;;4138376;28;20097;-74
2024/01/14 00:38:39;;;;;;;64.38;31.27;;;3.10;99.90;;;;;;4128877;28;20046;-75
2024/01/14 00:40:40;;;;;;;68.65;31.55;;;3.10;99.90;;;;;;4129187;28;21545;-74
2024/01/14 00:42:40;;;;;;;74.63;36.42;;;3.10;99.90;;;;;;4141905;28;20479;-75
2024/01/14 00:44:42;;;;;;;67.50;31.38;;;3.10;99.90;;;;;;4140256;28;20061;-75
2024/01/14 00:46:42;;;;;;;75.45;33.47;;;3.10;99.90;;;;;;4135719;28;20057;-75
2024/01/14 00:48:43;;;;;;;81.45;37.33;;;3.10;99.90;;;;;;4133396;28;20785;-76
2024/01/14 00:50:43;;;;;;;73.63;34.35;;;3.10;99.90;;;;;;4112305;28;20045;-75
2024/01/14 00:52:44;;;;;;;61.85;30.25;;;3.10;99.90;;;;;;4131249;28;20109;-76
2024/01/14 00:54:45;;;;;;;69.18;32.67;;;3.10;99.90;;;;;;4129543;28;20030;-76
2024/01/14 00:56:46;;;;;;;72.63;34.20;;;3.10;99.90;;;;;;4130191;28;20046;-76
2024/01/14 00:58:46;;;;;;;65.28;32.38;;;3.00;99.90;;;;;;4112888;28;20030;-73
2024/01/14 01:00:47;;;;;;;80.90;35.35;;;3.10;99.90;;;;;;4128655;28;20052;-73
2024/01/14 01:02:48;;;;;;;72.03;33.47;;;3.10;99.90;;;;;;4129997;28;20442;-73
2024/01/14 01:04:48;;;;;;;79.30;37.03;;;3.10;99.90;;;;;;4112766;28;20488;-74
2024/01/14 01:06:49;;;;;;;70.07;33.13;;;3.00;99.90;;;;;;4134283;28;20042;-73
2024/01/14 01:08:50;;;;;;;74.30;34.08;;;3.10;99.90;;;;;;4131418;28;20108;-73
2024/01/14 01:10:51;;;;;;;72.55;33.00;;;3.10;99.90;;;;;;4129147;28;20046;-75
2024/01/14 01:12:51;;;;;;;78.22;35.20;;;3.10;99.90;;;;;;4128681;28;20038;-74
2024/01/14 01:14:52;;;;;;;80.05;36.38;;;3.10;99.90;;;;;;4128373;28;20027;-73
2024/01/14 01:16:52;;;;;;;78.53;35.55;;;3.10;99.90;;;;;;4131001;28;20427;-73
2024/01/14 01:18:53;;;;;;;82.97;36.63;;;3.10;99.90;;;;;;4128905;28;20042;-73
2024/01/14 01:20:54;;;;;;;75.85;34.60;;;3.10;99.90;;;;;;4112043;28;20050;-74
2024/01/14 01:22:54;;;;;;;78.28;35.42;;;3.00;99.90;;;;;;4135524;28;20030;-73
2024/01/14 01:24:55;;;;;;;88.32;39.03;;;3.10;99.90;;;;;;4130086;28;20124;-73
2024/01/14 01:26:55;;;;;;;82.30;36.72;;;3.00;99.90;;;;;;4128437;28;20053;-73
2024/01/14 01:28:56;;;;;;;81.45;35.33;;;3.00;99.90;;;;;;4112427;28;20407;-73
2024/01/14 01:30:57;;;;;;;75.57;35.85;;;3.10;99.90;;;;;;4124424;28;20042;-73
2024/01/14 01:32:57;;;;;;;75.07;33.22;;;3.00;99.90;;;;;;4129519;28;20042;-73
2024/01/14 01:34:58;;;;;;;84.10;34.90;;;3.00;99.90;;;;;;4128901;28;20033;-73
2024/01/14 01:36:58;;;;;;;82.97;34.85;;;3.00;99.90;;;;;;4127810;28;20543;-73
2024/01/14 01:38:59;;;;;;;89.85;37.90;;;3.00;99.90;;;;;;4128763;28;20073;-73
2024/01/14 01:40:59;;;;;;;90.53;38.40;;;3.00;99.90;;;;;;4128550;28;20475;-72
2024/01/14 01:43:00;;;;;;;81.72;35.65;;;3.00;99.90;;;;;;4128480;28;20038;-73
2024/01/14 01:45:02;;;;;;;77.78;36.75;;;3.10;99.90;;;;;;4128798;28;20112;-73
2024/01/14 01:47:03;;;;;;;79.10;35.20;;;3.00;99.90;;;;;;4111415;28;20601;-73
2024/01/14 01:49:04;;;;;;;67.38;33.65;;;3.00;99.90;;;;;;4128391;28;20047;-73
2024/01/14 01:51:06;;;;;;;73.75;33.58;;;3.10;99.90;;;;;;4097137;28;20159;-73
2024/01/14 01:53:07;;;;;;;75.57;33.13;;;3.10;99.90;;;;;;4128837;28;20034;-73
2024/01/14 01:55:10;;;;;;;81.70;35.58;;;3.10;99.90;;;;;;4127089;28;20061;-75
2024/01/14 01:57:12;;;;;;;75.50;34.72;;;3.10;99.90;;;;;;4127640;28;20126;-74
2024/01/14 01:59:13;;;;;;;86.20;38.40;;;3.20;99.90;;;;;;4111549;28;20086;-76
2024/01/14 02:01:15;;;;;;;75.38;36.03;;;3.10;99.90;;;;;;4109220;28;20520;-76
2024/01/14 02:03:16;;;;;;;70.88;33.00;;;3.10;99.90;;;;;;4127397;28;20042;-76
2024/01/14 02:05:18;;;;;;;81.15;35.35;;;3.10;99.90;;;;;;4127922;28;20042;-76
2024/01/14 02:07:21;;;;;;;77.00;34.17;;;3.10;99.90;;;;;;4127255;28;20120;-76
2024/01/14 02:09:22;;;;;;;73.70;34.55;;;3.10;99.90;;;;;;4129044;28;20486;-76
2024/01/14 02:11:23;;;;;;;81.60;37.20;;;3.20;99.90;;;;;;4126999;28;20066;-76
2024/01/14 02:13:24;;;;;;;75.72;35.33;;;3.20;99.90;;;;;;4128550;28;20038;-76
2024/01/14 02:15:24;;;;;;;77.47;35.83;;;3.20;99.90;;;;;;4124553;28;20038;-76
2024/01/14 02:17:25;;;;;;;75.90;35.83;;;3.20;99.90;;;;;;4121266;28;20074;-76
2024/01/14 02:19:26;;;;;;;72.13;32.80;;;3.20;99.90;;;;;;4127053;28;20034;-74
2024/01/14 02:21:36;;;;;;;76.38;36.47;;;3.10;99.90;;;;;;4128027;28;20042;-76
2024/01/14 02:23:41;;;;;;;80.35;37.03;;;3.20;99.90;;;;;;4118693;28;20391;-76
2024/01/14 02:25:42;;;;;;;84.32;36.90;;;3.10;99.90;;;;;;4125101;28;20082;-76
2024/01/14 02:27:43;;;;;;;74.28;34.05;;;3.20;99.90;;;;;;4116330;28;20043;-76
2024/01/14 02:29:44;;;;;;;80.50;37.05;;;3.20;99.90;;;;;;4128091;28;20046;-76
2024/01/14 02:31:45;;;;;;;90.93;39.00;;;3.20;99.90;;;;;;4128023;28;20042;-76
2024/01/14 02:33:46;;;;;;;84.47;38.28;;;3.20;99.90;;;;;;4127500;28;20349;-77
2024/01/14 02:35:46;;;;;;;81.63;37.03;;;3.20;99.90;;;;;;4142758;28;20419;-75
2024/01/14 02:37:47;;;;;;;82.93;37.80;;;3.20;99.90;;;;;;4127568;28;20444;-76
2024/01/14 02:39:48;;;;;;;89.00;38.83;;;3.20;99.90;;;;;;4128093;28;20487;-76
2024/01/14 02:41:49;;;;;;;82.45;38.35;;;3.20;99.90;;;;;;4127834;28;20030;-75
2024/01/14 02:43:50;;;;;;;76.65;35.20;;;3.20;99.90;;;;;;4142125;28;20391;-76
2024/01/14 02:45:50;;;;;;;76.53;36.17;;;3.20;99.90;;;;;;4126597;28;20030;-76
2024/01/14 02:47:51;;;;;;;78.50;36.35;;;3.20;99.90;;;;;;4127575;28;20061;-76
2024/01/14 02:49:51;;;;;;;79.63;36.78;;;3.20;99.90;;;;;;4125974;28;20026;-76
2024/01/14 02:51:52;;;;;;;77.25;36.03;;;3.20;99.90;;;;;;4142743;28;20143;-76
2024/01/14 02:53:53;;;;;;;73.38;34.47;;;3.20;99.90;;;;;;4127015;28;20045;-76
2024/01/14 02:55:53;;;;;;;80.68;37.38;;;3.20;99.90;;;;;;4126349;28;20038;-75
2024/01/14 02:57:55;;;;;;;78.75;35.17;;;3.10;99.90;;;;;;4127084;28;20150;-75
2024/01/14 02:59:55;;;;;;;75.05;35.85;;;3.20;99.90;;;;;;4127470;28;20050;-76
2024/01/14 03:01:56;;;;;;;82.60;37.00;;;3.20;99.90;;;;;;4127212;28;20034;-76
2024/01/14 03:03:56;;;;;;;76.72;35.88;;;3.20;99.90;;;;;;4127309;28;20423;-76
2024/01/14 03:05:57;;;;;;;79.28;35.20;;;3.20;99.90;;;;;;4126404;28;20038;-76
2024/01/14 03:07:58;;;;;;;74.57;34.75;;;3.20;99.90;;;;;;4113114;28;20104;-76
2024/01/14 03:09:58;;;;;;;76.20;35.38;;;3.20;99.90;;;;;;4128198;28;20034;-76
2024/01/14 03:11:59;;;;;;;73.53;33.55;;;3.20;99.90;;;;;;4126358;28;20784;-76
2024/01/14 03:13:59;;;;;;;80.72;35.75;;;3.20;99.90;;;;;;4110140;28;21456;-76
2024/01/14 03:16:00;;;;;;;71.75;32.70;;;3.10;99.90;;;;;;4126092;28;21803;-75
2024/01/14 03:18:00;;;;;;;70.25;33.78;;;3.20;99.90;;;;;;4128603;28;20042;-76
2024/01/14 03:20:02;;;;;;;73.00;34.25;;;3.20;99.90;;;;;;4131376;28;20132;-74
2024/01/14 03:22:02;;;;;;;70.68;33.78;;;3.20;99.90;;;;;;4132862;28;20038;-73
2024/01/14 03:24:03;;;;;;;80.07;37.13;;;3.20;99.90;;;;;;4132346;28;20038;-73
2024/01/14 03:26:04;;;;;;;71.70;32.97;;;3.20;99.90;;;;;;4131660;28;20114;-73
2024/01/14 03:28:05;;;;;;;73.35;34.05;;;3.10;99.90;;;;;;4132443;28;20553;-73
2024/01/14 03:30:06;;;;;;;81.38;35.40;;;3.20;99.90;;;;;;4132136;28;20387;-73
2024/01/14 03:32:07;;;;;;;74.10;33.60;;;3.20;99.90;;;;;;4132378;28;20048;-73
2024/01/14 03:34:08;;;;;;;77.78;33.35;;;3.20;99.90;;;;;;4115154;28;20461;-72
2024/01/14 03:36:15;;;;;;;70.80;31.75;;;3.10;99.90;;;;;;4131931;28;20093;-71
2024/01/14 03:38:15;;;;;;;64.38;31.30;;;3.20;99.90;;;;;;4126721;28;20058;-71
2024/01/14 03:40:18;;;;;;;66.70;33.42;;;3.20;99.90;;;;;;4132221;28;20041;-72
2024/01/14 03:42:18;;;;;;;62.58;30.70;;;3.10;99.90;;;;;;4131985;28;20035;-72
2024/01/14 03:44:19;;;;;;;62.75;30.05;;;3.10;99.90;;;;;;4133021;28;20065;-73
2024/01/14 03:46:20;;;;;;;60.53;30.13;;;3.10;99.90;;;;;;4130513;28;20046;-73
2024/01/14 03:48:20;;;;;;;59.40;29.02;;;3.20;99.90;;;;;;4115706;28;20058;-72
2024/01/14 03:50:21;;;;;;;56.95;29.52;;;3.20;99.90;;;;;;4131822;28;20034;-76
2024/01/14 03:52:22;;;;;;;68.95;31.50;;;3.20;99.90;;;;;;4115675;28;20058;-76
2024/01/14 03:54:22;;;;;;;58.95;29.85;;;3.20;99.90;;;;;;4132104;28;20037;-76
2024/01/14 03:56:23;;;;;;;61.92;30.63;;;3.20;99.90;;;;;;4131238;28;20343;-76
2024/01/14 03:58:24;;;;;;;66.50;32.42;;;3.20;99.90;;;;;;4147568;28;20487;-75
2024/01/14 04:00:24;;;;;;;57.83;29.35;;;3.20;99.90;;;;;;4115154;28;20051;-72
2024/01/14 04:02:25;;;;;;;65.28;33.22;;;3.20;99.90;;;;;;4115596;28;20483;-72
2024/01/14 04:04:25;;;;;;;66.88;32.95;;;3.20;99.90;;;;;;4131821;28;20150;-72
2024/01/14 04:06:26;;;;;;;69.72;33.10;;;3.20;99.90;;;;;;4131515;28;20033;-73
2024/01/14 04:08:27;;;;;;;71.53;32.47;;;3.20;99.90;;;;;;4132288;28;20475;-72
2024/01/14 04:10:27;;;;;;;62.70;30.30;;;3.10;99.90;;;;;;4132099;28;20540;-76
2024/01/14 04:12:28;;;;;;;65.05;30.88;;;3.20;99.90;;;;;;4116082;28;20551;-76
2024/01/14 04:14:29;;;;;;;62.65;30.83;;;3.10;99.90;;;;;;4132236;28;20041;-76
2024/01/14 04:16:36;;;;;;;69.40;33.38;;;3.20;99.90;;;;;;4131229;28;20114;-76
2024/01/14 04:18:37;;;;;;;74.65;34.20;;;3.20;99.90;;;;;;4123568;28;20076;-76
2024/01/14 04:20:38;;;;;;;68.60;33.53;;;3.20;99.90;;;;;;4132086;28;20042;-76
2024/01/14 04:22:38;;;;;;;71.50;33.17;;;3.10;99.90;;;;;;4125175;28;20542;-76
2024/01/14 04:24:39;;;;;;;66.00;31.48;;;3.10;99.90;;;;;;4132222;28;20527;-76
2024/01/14 04:26:40;;;;;;;72.10;33.83;;;3.10;99.90;;;;;;4130723;28;20117;-78
2024/01/14 04:28:41;;;;;;;75.65;35.92;;;3.10;99.90;;;;;;4115275;28;20569;-77
2024/01/14 04:30:41;;;;;;;73.57;34.80;;;3.00;99.90;;;;;;4111410;28;20735;-77
2024/01/14 04:32:43;;;;;;;73.32;36.05;;;3.00;99.90;;;;;;4129532;28;20033;-78
2024/01/14 04:34:43;;;;;;;67.05;32.05;;;3.10;99.90;;;;;;4129984;28;20030;-78
2024/01/14 04:36:44;;;;;;;67.53;33.20;;;3.10;99.90;;;;;;4112867;28;20488;-77
2024/01/14 04:38:44;;;;;;;66.38;32.85;;;3.00;99.90;;;;;;4111866;28;21083;-78
2024/01/14 04:40:45;;;;;;;64.45;32.38;;;3.00;99.90;;;;;;4129355;28;20903;-78
2024/01/14 04:42:45;;;;;;;69.22;33.08;;;3.00;99.90;;;;;;4129502;28;20027;-78
2024/01/14 04:44:46;;;;;;;67.47;32.75;;;3.00;99.90;;;;;;4129892;28;20446;-76
2024/01/14 04:46:47;;;;;;;71.13;31.88;;;3.00;99.90;;;;;;4128875;28;20385;-78
2024/01/14 04:48:47;;;;;;;71.45;32.50;;;3.00;99.90;;;;;;4144773;28;20484;-78
2024/01/14 04:50:48;;;;;;;64.18;32.00;;;3.00;99.90;;;;;;4115365;28;20121;-74
2024/01/14 04:52:49;;;;;;;69.85;33.58;;;3.00;99.90;;;;;;4130318;28;20118;-74
2024/01/14 04:54:49;;;;;;;77.97;35.95;;;3.00;99.90;;;;;;4128849;28;20096;-74
2024/01/14 04:56:50;;;;;;;80.10;36.53;;;2.90;99.90;;;;;;4128128;28;20042;-74
2024/01/14 04:58:51;;;;;;;74.05;34.30;;;3.00;99.90;;;;;;4130265;28;20037;-74
2024/01/14 05:00:52;;;;;;;71.80;31.45;;;2.90;99.90;;;;;;4110663;28;20132;-74
2024/01/14 05:02:53;;;;;;;66.57;31.95;;;2.90;99.90;;;;;;4129753;28;20034;-74
2024/01/14 05:04:53;;;;;;;61.72;30.55;;;2.90;99.90;;;;;;4128658;28;20038;-74
2024/01/14 05:06:54;;;;;;;64.35;29.67;;;2.90;99.90;;;;;;4127989;28;20455;-74
2024/01/14 05:08:55;;;;;;;71.25;33.28;;;2.90;99.90;;;;;;4127731;28;20037;-74
2024/01/14 05:10:55;;;;;;;73.55;34.25;;;2.90;99.90;;;;;;4123157;28;20129;-75
2024/01/14 05:12:56;;;;;;;65.43;31.83;;;2.90;99.90;;;;;;4126124;28;20036;-75
2024/01/14 05:14:56;;;;;;;70.57;33.33;;;2.90;99.90;;;;;;4126180;28;20534;-75
2024/01/14 05:16:57;;;;;;;71.35;32.45;;;2.90;99.90;;;;;;4109676;28;20419;-74
2024/01/14 05:18:57;;;;;;;68.32;32.58;;;2.90;99.90;;;;;;4128171;28;20084;-74
2024/01/14 05:20:58;;;;;;;64.50;31.45;;;3.00;99.90;;;;;;4128825;28;20045;-75
2024/01/14 05:22:59;;;;;;;70.70;32.55;;;3.00;99.90;;;;;;4131256;28;20088;-74
2024/01/14 05:24:59;;;;;;;66.53;32.08;;;2.90;99.90;;;;;;4128544;28;20121;-74
2024/01/14 05:27:00;;;;;;;73.47;34.03;;;2.90;99.90;;;;;;4126769;28;20050;-75
2024/01/14 05:29:01;;;;;;;77.03;36.53;;;2.90;99.90;;;;;;4129912;28;20065;-74
2024/01/14 05:31:01;;;;;;;69.18;32.28;;;3.00;99.90;;;;;;4127518;28;20526;-74
2024/01/14 05:33:02;;;;;;;64.35;30.83;;;2.90;99.90;;;;;;4129538;28;20602;-75
2024/01/14 05:35:03;;;;;;;67.90;32.00;;;2.90;99.90;;;;;;4126245;28;20065;-74
2024/01/14 05:37:05;;;;;;;66.20;31.23;;;2.90;99.90;;;;;;4127414;28;20053;-74
2024/01/14 05:39:05;;;;;;;65.45;30.33;;;2.90;99.90;;;;;;4112041;28;20043;-74
2024/01/14 05:41:06;;;;;;;74.45;33.75;;;2.90;99.90;;;;;;4127542;28;20093;-78
2024/01/14 05:43:06;;;;;;;78.38;34.33;;;2.90;99.90;;;;;;4129416;28;20034;-78
2024/01/14 05:45:08;;;;;;;61.20;30.83;;;2.90;99.90;;;;;;4110805;28;20042;-76
2024/01/14 05:47:08;;;;;;;70.07;34.15;;;2.90;99.90;;;;;;4128761;28;20031;-78
2024/01/14 05:49:10;;;;;;;66.93;32.83;;;3.00;99.90;;;;;;4129458;28;20525;-77
2024/01/14 05:51:11;;;;;;;64.07;29.23;;;3.00;99.90;;;;;;4123859;28;20050;-74
2024/01/14 05:53:11;;;;;;;62.20;30.05;;;2.90;99.90;;;;;;4128972;28;20027;-75
2024/01/14 05:55:12;;;;;;;60.30;29.50;;;2.90;99.90;;;;;;4127629;28;20034;-74
2024/01/14 05:57:12;;;;;;;58.28;29.17;;;3.00;99.90;;;;;;4127950;28;20038;-74
2024/01/14 05:59:13;;;;;;;64.32;30.02;;;2.90;99.90;;;;;;4128232;28;20117;-74
2024/01/14 06:01:14;;;;;;;58.10;28.08;;;2.90;99.90;;;;;;4111514;28;20485;-74
2024/01/14 06:03:15;;;;;;;60.33;28.88;;;2.90;99.90;;;;;;4128191;28;20559;-74
2024/01/14 06:05:15;;;;;;;57.45;28.95;;;2.90;99.90;;;;;;4111597;28;20487;-74
2024/01/14 06:07:16;;;;;;;56.75;26.80;;;2.90;99.90;;;;;;4110963;28;20110;-74
2024/01/14 06:09:16;;;;;;;61.33;29.25;;;3.00;99.90;;;;;;4128924;28;20035;-74
2024/01/14 06:11:18;;;;;;;52.97;26.17;;;3.00;99.90;;;;;;4127589;28;20050;-74
2024/01/14 06:13:18;;;;;;;56.42;27.33;;;3.00;99.90;;;;;;4127965;28;20034;-74
2024/01/14 06:15:19;;;;;;;57.88;28.42;;;2.90;99.90;;;;;;4110113;28;20038;-74
2024/01/14 06:17:20;;;;;;;54.08;26.73;;;2.90;99.90;;;;;;4128444;28;20140;-74
2024/01/14 06:19:20;;;;;;;56.78;28.63;;;3.00;99.90;;;;;;4128180;28;20042;-74
2024/01/14 06:21:21;;;;;;;55.05;27.60;;;2.90;99.90;;;;;;4127175;28;20034;-75
2024/01/14 06:23:22;;;;;;;55.95;27.88;;;2.90;99.90;;;;;;4126504;28;20038;-74
2024/01/14 06:25:22;;;;;;;58.92;27.15;;;2.90;99.90;;;;;;4123887;28;20042;-74
2024/01/14 06:27:23;;;;;;;51.95;25.95;;;2.90;99.90;;;;;;4114699;28;20507;-74
2024/01/14 06:29:24;;;;;;;56.40;28.15;;;2.90;99.90;;;;;;4118172;28;20039;-74
2024/01/14 06:31:24;;;;;;;57.50;26.27;;;2.90;99.90;;;;;;4109182;28;20050;-74
2024/01/14 06:33:25;;;;;;;49.67;24.30;;;2.90;99.90;;;;;;4126663;28;20055;-74
2024/01/14 06:35:26;;;;;;;58.33;27.08;;;2.90;99.90;;;;;;4127020;28;20521;-74
2024/01/14 06:37:26;;;;;;;56.80;28.77;;;2.90;99.90;;;;;;4125990;28;20122;-75
2024/01/14 06:39:27;;;;;;;53.58;26.23;;;2.90;99.90;;;;;;4116064;28;20042;-74
2024/01/14 06:41:28;;;;;;;61.70;28.70;;;2.90;99.90;;;;;;4122035;28;20034;-75
2024/01/14 06:43:28;;;;;;;58.55;27.75;;;2.90;99.90;;;;;;4126760;28;20510;-75
2024/01/14 06:45:29;;;;;;;51.28;25.45;;;2.90;99.90;;;;;;4125209;28;20046;-77
2024/01/14 06:47:30;;;;;;;56.53;26.50;;;2.90;99.90;;;;;;4108422;28;20043;-74
2024/01/14 06:49:30;;;;;;;54.13;25.27;;;2.90;99.90;;;;;;4121474;28;20042;-74
2024/01/14 06:51:31;;;;;;;52.03;24.52;;;3.00;99.90;;;;;;4121731;28;20128;-74
2024/01/14 06:53:31;;;;;;;53.33;25.45;;;3.00;99.90;;;;;;4111834;28;20031;-74
2024/01/14 06:55:32;;;;;;;60.47;26.55;;;3.00;99.90;;;;;;4126394;28;20034;-73
2024/01/14 06:57:33;;;;;;;53.30;24.48;;;3.00;99.90;;;;;;4126688;28;20121;-74
2024/01/14 06:59:33;;;;;;;48.58;23.65;;;3.00;99.90;;;;;;4126928;28;20443;-74
2024/01/14 07:01:34;;;;;;;56.63;27.52;;;3.00;99.90;;;;;;4127104;28;20050;-74
2024/01/14 07:03:34;;;;;;;51.80;24.65;;;3.00;99.90;;;;;;4128283;28;20117;-74
2024/01/14 07:05:35;;;;;;;54.40;26.25;;;3.00;99.90;;;;;;4111769;28;20033;-74
2024/01/14 07:07:36;;;;;;;53.42;25.73;;;3.00;99.90;;;;;;4120622;28;20047;-74
2024/01/14 07:09:36;;;;;;;50.47;23.85;;;3.00;99.90;;;;;;4107929;28;20041;-74
2024/01/14 07:11:37;;;;;;;52.10;23.60;;;3.00;99.90;;;;;;4126320;28;20373;-74
2024/01/14 07:13:39;;;;;;;50.15;24.85;;;3.00;99.90;;;;;;4131910;28;20096;-74
2024/01/14 07:15:39;;;;;;;55.53;26.42;;;3.00;99.90;;;;;;4125840;28;20038;-70
2024/01/14 07:17:40;;;;;;;56.97;26.17;;;3.00;99.90;;;;;;4126179;28;20034;-71
2024/01/14 07:19:40;;;;;;;53.17;26.10;;;2.90;99.90;;;;;;4126621;28;20122;-76
2024/01/14 07:21:41;;;;;;;52.05;23.95;;;2.90;99.90;;;;;;4126822;28;20031;-69
2024/01/14 07:23:41;;;;;;;54.83;26.23;;;2.90;99.90;;;;;;4125794;28;20038;-69
2024/01/14 07:25:42;;;;;;;49.60;24.42;;;2.90;99.90;;;;;;4124901;28;20026;-71
2024/01/14 07:27:43;;;;;;;49.05;24.83;;;3.00;99.90;;;;;;4142189;28;20132;-70
2024/01/14 07:29:43;;;;;;;52.78;25.40;;;3.00;99.90;;;;;;4126499;28;20660;-70
2024/01/14 07:31:44;;;;;;;60.92;28.48;;;3.00;99.90;;;;;;4126103;28;20047;-71
2024/01/14 07:33:44;;;;;;;51.55;25.65;;;2.90;99.90;;;;;;4127220;28;20037;-72
2024/01/14 07:35:45;;;;;;;51.10;25.45;;;2.90;99.90;;;;;;4125318;28;20514;-71
2024/01/14 07:37:45;;;;;;;51.75;24.70;;;2.90;99.90;;;;;;4119911;28;20042;-70
2024/01/14 07:39:46;;;;;;;61.85;26.65;;;2.90;99.90;;;;;;4110756;28;20041;-70
2024/01/14 07:41:47;;;;;;;47.70;24.27;;;2.80;99.90;;;;;;4108813;28;20035;-70
2024/01/14 07:43:47;;;;;;;52.90;23.90;;;2.90;99.90;;;;;;4127161;28;20522;-70
2024/01/14 07:45:50;;;;;;;49.78;24.80;;;2.90;99.90;;;;;;4124457;28;20514;-72
2024/01/14 07:47:51;;;;;;;;;;;3.00;99.90;;;;;;4108209;28;20030;-71
2024/01/14 07:49:51;;;;;;;54.50;25.00;;;2.90;99.90;;;;;;4126748;28;19996;-71
2024/01/14 07:51:52;;;;;;;52.20;25.63;;;2.90;99.90;;;;;;4125016;28;20039;-71
2024/01/14 07:53:52;;;;;;;59.63;25.75;;;2.90;99.90;;;;;;4123517;28;20042;-70
2024/01/14 07:55:53;;;;;;;56.28;26.05;;;2.90;99.90;;;;;;4125091;28;20089;-70
2024/01/14 07:57:55;;;;;;;64.13;29.20;;;2.90;99.90;;;;;;4125826;28;20058;-70
2024/01/14 07:59:56;;;;;;;67.45;29.15;;;2.90;99.90;;;;;;4127966;28;20065;-71
2024/01/14 08:01:56;;;;;;;53.72;26.10;;;2.80;99.90;;;;;;4126672;28;20054;-71
2024/01/14 08:03:57;;;;;;;53.55;25.60;;;2.80;99.90;;;;;;4129109;28;20129;-71
2024/01/14 08:05:58;;;;;;;56.63;24.38;;;2.80;99.90;;;;;;4127322;28;20499;-73
2024/01/14 08:07:59;;;;;;;53.58;23.80;;;2.80;99.90;;;;;;4114666;28;20046;-71
2024/01/14 08:09:59;;;;;;;55.65;26.10;;;2.80;99.90;;;;;;4130941;28;20035;-71
2024/01/14 08:12:00;;;;;;;49.42;22.98;;;2.80;99.90;;;;;;4128432;28;20061;-71
2024/01/14 08:14:00;;;;;;;49.95;23.60;;;2.80;99.90;;;;;;4132823;28;20045;-72
2024/01/14 08:16:01;;;;;;;54.97;24.55;;;2.70;99.90;;;;;;4127988;28;20045;-71
2024/01/14 08:18:02;;;;;;;54.70;24.38;;;2.80;99.90;;;;;;4129935;28;20575;-70
2024/01/14 08:20:05;;;;;;;52.97;25.17;;;2.80;99.90;;;;;;4128953;28;20495;-71
2024/01/14 08:22:05;;;;;;;50.92;24.02;;;2.70;99.90;;;;;;4130243;28;20041;-71
2024/01/14 08:24:06;;;;;;;48.42;21.52;;;2.80;99.90;;;;;;4129223;28;20398;-71
2024/01/14 08:26:06;;;;;;;48.08;22.05;;;2.70;99.90;;;;;;4127795;28;20544;-71
2024/01/14 08:28:07;;;;;;;47.42;22.20;;;2.70;99.90;;;;;;4129733;28;20038;-71
2024/01/14 08:30:08;;;;;;;41.20;19.90;;;2.70;99.90;;;;;;4128774;28;20133;-74
2024/01/14 08:32:10;;;;;;;46.85;21.40;;;2.70;99.90;;;;;;4130044;28;20050;-74
2024/01/14 08:34:10;;;;;;;40.53;21.48;;;2.70;99.90;;;;;;4111379;28;20043;-74
2024/01/14 08:36:11;;;;;;;42.70;20.60;;;2.60;99.90;;;;;;4128492;28;20536;-75
2024/01/14 08:38:11;;;;;;;44.63;20.73;;;2.70;99.90;;;;;;4129429;28;20415;-74
2024/01/14 08:40:13;;;;;;;45.75;20.88;;;2.60;99.90;;;;;;4129116;28;20486;-74
2024/01/14 08:42:14;;;;;;;43.92;20.27;;;2.60;99.90;;;;;;4125035;28;20038;-73
2024/01/14 08:44:15;;;;;;;47.58;22.33;;;2.60;99.90;;;;;;4127339;28;20114;-74
2024/01/14 08:46:15;;;;;;;45.78;21.70;;;2.60;99.90;;;;;;4127518;28;20379;-74
2024/01/14 08:48:16;;;;;;;52.00;23.48;;;2.60;99.90;;;;;;4130139;28;20065;-74
2024/01/14 08:50:18;;;;;;;45.72;20.92;;;2.60;99.90;;;;;;4129485;28;20501;-73
2024/01/14 08:52:19;;;;;;;48.92;21.65;;;2.60;99.90;;;;;;4128767;28;20053;-74
2024/01/14 08:54:21;;;;;;;49.05;22.05;;;2.60;99.90;;;;;;4129947;28;20034;-74
2024/01/14 08:56:21;;;;;;;55.53;24.53;;;2.60;99.90;;;;;;4127627;28;20117;-74
2024/01/14 08:58:22;;;;;;;48.17;23.00;;;2.60;99.90;;;;;;4129841;28;20792;-75
2024/01/14 09:00:23;;;;;;;40.92;20.70;;;2.60;99.90;;;;;;4128307;28;20117;-74
2024/01/14 09:02:24;;;;;;;53.35;25.38;;;2.60;99.90;;;;;;4111764;28;20034;-74
2024/01/14 09:04:24;;;;;;;44.83;21.50;;;2.60;99.90;;;;;;4128975;28;20026;-75
2024/01/14 09:06:25;;;;;;;47.78;22.40;;;2.60;99.90;;;;;;4115891;28;20066;-74
2024/01/14 09:08:26;;;;;;;47.88;22.45;;;2.70;99.90;;;;;;4129610;28;20034;-74
2024/01/14 09:10:26;;;;;;;46.25;21.35;;;2.60;99.90;;;;;;4131648;28;20038;-77
2024/01/14 09:12:27;;;;;;;44.00;21.30;;;2.60;99.90;;;;;;4127011;28;20034;-76
2024/01/14 09:14:28;;;;;;;40.63;19.77;;;2.60;99.90;;;;;;4118646;28;20060;-76
2024/01/14 09:16:28;;;;;;;48.67;23.02;;;2.70;99.90;;;;;;4125748;28;20038;-76
2024/01/14 09:18:29;;;;;;;48.97;21.83;;;2.70;99.90;;;;;;4129406;28;20427;-73
2024/01/14 09:20:29;;;;;;;39.45;20.00;;;2.60;99.90;;;;;;4126867;28;20034;-76
2024/01/14 09:22:30;;;;;;;41.97;19.83;;;2.60;99.90;;;;;;4129023;28;20039;-75
2024/01/14 09:24:31;;;;;;;41.72;19.90;;;2.60;99.90;;;;;;4130326;28;20505;-75
2024/01/14 09:26:31;;;;;;;38.13;18.77;;;2.70;99.90;;;;;;4127185;28;20100;-76
2024/01/14 09:28:32;;;;;;;43.30;21.02;;;2.70;99.90;;;;;;4124508;28;20518;-77
2024/01/14 09:30:33;;;;;;;41.95;20.90;;;2.70;99.90;;;;;;4129536;28;20153;-76
2024/01/14 09:32:34;;;;;;;37.00;18.08;;;2.60;99.90;;;;;;4129089;28;20383;-76
2024/01/14 09:34:34;;;;;;;40.38;19.00;;;2.60;99.90;;;;;;4125699;28;20030;-76
2024/01/14 09:36:36;;;;;;;39.45;19.30;;;2.60;99.90;;;;;;4141661;28;20519;-76
2024/01/14 09:38:37;;;;;;;40.75;18.65;;;2.60;99.90;;;;;;4117195;28;20601;-75
2024/01/14 09:40:38;;;;;;;37.78;18.65;;;2.60;99.90;;;;;;4125561;28;20042;-71
2024/01/14 09:42:41;;;;;;;35.35;17.73;;;2.50;99.90;;;;;;4109016;28;20062;-71
2024/01/14 09:44:42;;;;;;;34.95;16.58;;;2.50;99.90;;;;;;4125562;28;20452;-71
2024/01/14 09:46:44;;;;;;;48.58;20.13;;;2.50;99.90;;;;;;4125260;28;20042;-71
2024/01/14 09:48:47;;;;;;;42.85;19.73;;;2.60;99.90;;;;;;4124754;28;20038;-74
2024/01/14 09:50:49;;;;;;;41.10;19.05;;;2.50;99.90;;;;;;4124379;28;20066;-71
2024/01/14 09:52:51;;;;;;;43.30;19.80;;;2.50;99.90;;;;;;4126637;28;20046;-71
2024/01/14 09:54:52;;;;;;;36.60;18.13;;;2.50;99.90;;;;;;4126988;28;20057;-71
2024/01/14 09:56:54;;;;;;;39.67;19.63;;;2.50;99.90;;;;;;4125750;28;20487;-70
2024/01/14 09:58:54;;;;;;;37.25;18.25;;;2.50;99.90;;;;;;4122933;28;20047;-71
2024/01/14 10:00:56;;;;;;;33.72;16.80;;;2.50;99.90;;;;;;4106866;28;20085;-71
2024/01/14 10:02:57;;;;;;;37.25;18.02;;;2.50;99.90;;;;;;4126095;28;20077;-71
2024/01/14 10:04:58;;;;;;;40.95;19.60;;;2.50;99.90;;;;;;4123212;28;20044;-71
2024/01/14 10:06:59;;;;;;;38.63;18.35;;;2.50;99.90;;;;;;4121552;28;20073;-70
2024/01/14 10:09:00;;;;;;;40.92;18.90;;;2.50;99.90;;;;;;4122848;28;20042;-72
2024/01/14 10:11:03;;;;;;;36.72;18.13;;;2.40;99.90;;;;;;4123954;28;20038;-72
2024/01/14 10:13:05;;;;;;;46.47;21.45;;;2.50;99.90;;;;;;4106990;28;20050;-71
2024/01/14 10:15:05;;;;;;;42.13;19.90;;;2.50;99.90;;;;;;4125492;28;20046;-72
2024/01/14 10:17:06;;;;;;;46.22;21.05;;;2.50;99.90;;;;;;4123820;28;20399;-71
2024/01/14 10:19:07;;;;;;;39.88;18.20;;;2.50;99.90;;;;;;4123514;28;20058;-71
2024/01/14 10:21:09;;;;;;;39.80;19.08;;;2.50;99.90;;;;;;4102026;28;20034;-71